Kathy Rose — WDD4343 — position and weather

sailwx.info

Track history (hours):
 
Tides and Currents Weather Stations Pressure Air Temp Water Temp Dewpoint Dewpoint Depression Visibility Wind Speed Wind Dir Waves Ship Positions

Kathy Rose

Owner: kathy rose inc, cape may, NJ. More information available from US FCC via Universal Licensing System and Coast Guard Vessel Documentation Center.

Last reported at 2018-Jul-12 22:48 UTC. Time now 2018-Jul-19 13:14 UTC.
Position N 40°58' W 067°06'.

Length 25 m; draft 3.2 m.

Type: Fishing. MMSI: 367143550.

Date/timePositionNaut miles runAvg speedWind from/ knotsBaromVisibWave heightAir tempDewpointWater temp
2018-Jul-12 22:48N 40°58' W 067°06'0 1.2
2018-Jul-12 22:30N 40°58' W 067°06'2 3.6
2018-Jul-12 22:00N 40°58' W 067°03'3 5.2
2018-Jul-12 21:30N 40°58' W 066°60'  
2018-Jul-09 05:30N 40°46' W 067°37'1 0.9
2018-Jul-09 04:17N 40°45' W 067°38'  
2018-Jul-04 13:24N 41°20' W 071°55'3 6.4
2018-Jul-04 13:00N 41°17' W 071°54'21 9.0
2018-Jul-04 10:37N 41°06' W 072°19'2 2.3
2018-Jul-04 09:39N 41°06' W 072°22'0 0.0
2018-Jul-04 08:41N 41°06' W 072°22'0 0.0
2018-Jul-04 08:30N 41°06' W 072°22'0 0.0
2018-Jul-04 06:25N 41°06' W 072°22'0 0.0
2018-Jul-04 06:00N 41°06' W 072°22'0 0.0
2018-Jul-04 05:11N 41°06' W 072°22'  
Track history (hours):
 
Tides and Currents Weather Stations Pressure Air Temp Water Temp Dewpoint Dewpoint Depression Visibility Wind Speed Wind Dir Waves Ship Positions

Kathy Rose

Owner: kathy rose inc, cape may, NJ. More information available from US FCC via Universal Licensing System and Coast Guard Vessel Documentation Center.

Last reported at 2018-Jul-12 22:48 UTC. Time now 2018-Jul-19 13:14 UTC.
Position N 40°58' W 067°06'.

Length 25 m; draft 3.2 m.

Type: Fishing. MMSI: 367143550.

Date/timePositionNaut miles runAvg speedWind from/ knotsBaromVisibWave heightAir tempDewpointWater temp
2018-Jul-12 22:48N 40°58' W 067°06'0 1.2
2018-Jul-12 22:30N 40°58' W 067°06'2 3.6
2018-Jul-12 22:00N 40°58' W 067°03'3 5.2
2018-Jul-12 21:30N 40°58' W 066°60'  
2018-Jul-09 05:30N 40°46' W 067°37'1 0.9
2018-Jul-09 04:17N 40°45' W 067°38'  
2018-Jul-04 13:24N 41°20' W 071°55'3 6.4
2018-Jul-04 13:00N 41°17' W 071°54'21 9.0
2018-Jul-04 10:37N 41°06' W 072°19'2 2.3
2018-Jul-04 09:39N 41°06' W 072°22'0 0.0
2018-Jul-04 08:41N 41°06' W 072°22'0 0.0
2018-Jul-04 08:30N 41°06' W 072°22'0 0.0
2018-Jul-04 06:25N 41°06' W 072°22'0 0.0
2018-Jul-04 06:00N 41°06' W 072°22'0 0.0
2018-Jul-04 05:11N 41°06' W 072°22'  

Dump ship's entire track history